Airfield :
LOGIN :

Register | Disclaimer

   EN    FR    IT 

 










Legend :    VFR   Marginal VFR   IFR   Intensive IFR   Very Intensive IFR
Visi :
Ceiling :
>= 8 km
>= 3000ft
5 to 8 km
1000 to 3000 ft
1500m to 5 km
500 to 1000 ft
800 to 1500m
200 to 500 ft
< 800m
< 200 ft
Symbols :   Thunderstorms  Fog  Heavy snow  Heavy precipitations  Wind > 20 kt
SIGMETs :     Misc.  Thunderstorms  Icing  Turbulence  Mountain Waves  Volcanic Ashes






- Airport Elevation : 135 ft
- IATA code : EDI


EGPH - Edinburgh

CURRENT METAR :
  • 210250Z 24015KT 9999 OVC011 08/07 Q1038

EXPIRED METARs :
  • 210220Z 24007KT 9999 OVC013 08/06 Q1038
  • 210150Z 24009KT 220V280 9999 OVC014 08/06 Q1038
  • 210120Z 24013KT 9999 OVC015 08/06 Q1038
  • 210050Z 23013KT 9999 OVC016 08/06 Q1039
  • 210020Z 24012KT 9999 OVC017 08/06 Q1039

TAF AMD TAF EGPH
Valid from the 21 at 02:00 until the 22 at 00:00 UTC


210206Z 2102/2124 24012KT 9999 BKN025
TEMPO 2102/2124 BKN012
PROB40
TEMPO 2103/2124 7000 -RADZ BKN006
ATIS : +44 131 339 2823



MET'MAP, your aeronautical weather chart ! - Copyright ORBIFLY December 2007 - Disclaimer

ORBIFLY MET'MAP TEAM :

Programming & Development : Alexandra Zaïnal
Concept & original design : Baudouin d'Aumeries
Assistance for programming : Marc-Olivier Méhu
Technical & hardware support : Manuel Goepfert

Contact : metmap@orbifly.com




SOURCES & CREDITS :

   NOAA